Time;durP1;ratioP1;P1;durP2;ratioP2;P2;SDS_P1;SDS_P2;PMS_P1;PMS_P2;Temp;Humidity;BMP_temperature;BMP_pressure;BME280_temperature;BME280_humidity;BME280_pressure;Samples;Min_cycle;Max_cycle;Signal;HPM_P1;HPM_P2
2023/02/02 00:00:09;;;;;;;16.60;5.38;;;;;;;8.02;100.00;102155.81;10416064;28;20044;-66
2023/02/02 00:05:10;;;;;;;10.00;5.32;;;;;;;8.02;100.00;102155.81;10414991;28;20084;-67
2023/02/02 00:10:11;;;;;;;31.58;6.80;;;;;;;8.04;100.00;102169.16;10414467;28;20405;-66
2023/02/02 00:15:11;;;;;;;22.95;5.85;;;;;;;8.06;100.00;102154.50;10414286;28;20038;-66
2023/02/02 00:20:12;;;;;;;30.67;7.70;;;;;;;8.00;100.00;102154.28;10415291;28;20454;-66
2023/02/02 00:25:12;;;;;;;23.77;6.00;;;;;;;8.06;100.00;102161.75;10416555;28;20056;-66
2023/02/02 00:30:13;;;;;;;13.15;4.40;;;;;;;8.05;100.00;102155.53;10418100;28;20068;-65
2023/02/02 00:35:14;;;;;;;23.27;4.93;;;;;;;8.03;100.00;102160.22;10418231;28;20037;-66
2023/02/02 00:40:14;;;;;;;22.10;7.10;;;;;;;8.08;100.00;102166.00;10430243;28;20100;-66
2023/02/02 00:45:15;;;;;;;8.77;4.13;;;;;;;8.06;100.00;102165.31;10429698;28;20470;-66
2023/02/02 00:50:19;;;;;;;18.85;5.15;;;;;;;8.07;100.00;102172.41;10449500;28;20037;-66
2023/02/02 00:55:20;;;;;;;20.80;5.95;;;;;;;8.10;100.00;102171.25;10423168;28;20034;-66
2023/02/02 01:00:23;;;;;;;20.10;6.10;;;;;;;8.13;100.00;102162.84;10419996;28;20393;-66
2023/02/02 01:05:23;;;;;;;18.42;5.03;;;;;;;8.18;100.00;102174.06;10420024;28;20092;-66
2023/02/02 01:10:24;;;;;;;15.70;6.07;;;;;;;8.23;100.00;102170.88;10421485;28;20069;-65
2023/02/02 01:15:24;;;;;;;10.18;4.40;;;;;;;8.19;100.00;102172.19;10419394;28;20397;-65
2023/02/02 01:20:25;;;;;;;21.55;5.03;;;;;;;8.15;100.00;102155.47;10421586;28;20030;-67
2023/02/02 01:25:26;;;;;;;17.77;5.40;;;;;;;8.12;100.00;102159.31;10419158;28;20061;-66
2023/02/02 01:30:26;;;;;;;25.55;5.80;;;;;;;8.09;100.00;102158.75;10419385;28;20040;-66
2023/02/02 01:35:27;;;;;;;15.18;4.68;;;;;;;8.04;100.00;102159.22;10420558;28;20377;-66
2023/02/02 01:40:27;;;;;;;15.55;5.47;;;;;;;8.09;100.00;102164.16;10425945;28;20072;-66
2023/02/02 01:45:28;;;;;;;13.32;4.63;;;;;;;8.04;100.00;102164.63;10421406;28;20044;-66
2023/02/02 01:50:31;;;;;;;24.63;6.82;;;;;;;8.08;100.00;102171.41;10459122;28;20030;-66
2023/02/02 01:55:31;;;;;;;16.65;5.05;;;;;;;8.08;100.00;102165.16;10402133;28;20026;-66
2023/02/02 02:00:32;;;;;;;22.40;6.00;;;;;;;8.13;100.00;102162.84;10418191;28;20373;-66
2023/02/02 02:05:39;;;;;;;19.00;4.95;;;;;;;8.09;100.00;102167.69;10450607;28;20549;-66
2023/02/02 02:10:40;;;;;;;15.55;6.00;;;;;;;8.14;100.00;102178.91;10418247;28;20064;-66
2023/02/02 02:27:19;;;;;;;26.48;5.57;;;;;;;8.12;100.00;102158.47;10445892;28;20076;-66
2023/02/02 02:32:44;;;;;;;23.90;5.30;;;;;;;8.16;100.00;102157.16;10445701;28;20109;-66
2023/02/02 02:37:48;;;;;;;27.95;6.45;;;;;;;8.18;100.00;102162.41;10416996;28;20049;-66
2023/02/02 02:42:54;;;;;;;21.83;5.30;;;;;;;8.18;100.00;102159.72;10417489;28;20108;-66
2023/02/02 02:47:55;;;;;;;15.30;5.20;;;;;;;8.14;100.00;102167.28;10449096;28;20121;-66
2023/02/02 02:53:04;;;;;;;17.65;5.78;;;;;;;8.19;100.00;102174.91;10432988;28;20414;-67
2023/02/02 02:58:13;;;;;;;17.15;5.65;;;;;;;8.13;100.00;102150.22;10432795;28;20025;-67
2023/02/02 03:03:22;;;;;;;19.05;5.40;;;;;;;8.13;100.00;102150.22;10431942;28;20033;-65
2023/02/02 03:08:26;;;;;;;14.68;3.53;;;;;;;8.15;100.00;102153.63;10415940;28;20120;-66
2023/02/02 03:13:27;;;;;;;13.18;4.45;;;;;;;8.14;100.00;102141.13;10430568;28;20033;-66
2023/02/02 03:18:28;;;;;;;22.85;5.68;;;;;;;8.19;100.00;102164.09;10431430;28;20461;-65
2023/02/02 03:23:28;;;;;;;18.73;6.15;;;;;;;8.15;100.00;102150.91;10448926;28;20501;-67
2023/02/02 03:28:29;;;;;;;14.95;4.97;;;;;;;8.16;100.00;102163.41;10417161;28;20061;-66
2023/02/02 03:33:30;;;;;;;14.65;3.25;;;;;;;8.21;100.00;102171.06;10448299;28;20029;-66
2023/02/02 03:38:31;;;;;;;15.00;6.45;;;;;;;8.16;100.00;102163.41;10446690;28;20033;-66
2023/02/02 03:43:31;;;;;;;19.98;4.85;;;;;;;8.20;100.00;102184.69;10415928;28;20045;-67
2023/02/02 03:48:36;;;;;;;12.45;4.18;;;;;;;8.21;100.00;102189.09;10415827;28;20041;-67
2023/02/02 03:53:37;;;;;;;26.00;6.80;;;;;;;8.22;100.00;102199.72;10413301;28;20232;-66
2023/02/02 03:58:38;;;;;;;25.45;4.97;;;;;;;8.20;100.00;102179.28;10397225;28;20136;-66
2023/02/02 04:03:38;;;;;;;13.95;4.80;;;;;;;8.18;100.00;102192.09;10447609;28;20033;-66
2023/02/02 04:08:39;;;;;;;21.23;5.18;;;;;;;8.17;100.00;102183.16;10415491;28;20030;-66
2023/02/02 04:13:42;;;;;;;11.88;4.70;;;;;;;8.13;100.00;102187.97;10414046;28;20034;-66
2023/02/02 04:18:42;;;;;;;11.70;3.70;;;;;;;8.12;100.00;102185.44;10414470;28;20029;-66
2023/02/02 04:23:42;;;;;;;23.70;4.60;;;;;;;8.07;100.00;102185.91;10415788;28;20439;-67
2023/02/02 04:28:43;;;;;;;14.38;5.90;;;;;;;8.13;100.00;102179.03;10422354;28;20076;-66
2023/02/02 04:33:43;;;;;;;17.30;5.95;;;;;;;8.13;100.00;102190.69;10422467;28;20133;-66
2023/02/02 04:38:48;;;;;;;22.27;5.43;;;;;;;8.15;100.00;102209.44;10422267;28;20588;-66
2023/02/02 04:43:48;;;;;;;15.85;5.10;;;;;;;8.18;100.00;102214.53;10423783;28;20034;-69
2023/02/02 04:48:49;;;;;;;17.88;3.67;;;;;;;8.24;100.00;102210.38;10422908;28;20029;-66
2023/02/02 04:53:49;;;;;;;17.13;5.88;;;;;;;8.27;100.00;102204.69;10422833;28;20045;-65
2023/02/02 04:58:52;;;;;;;12.23;4.15;;;;;;;8.23;100.00;102197.88;10421157;28;20540;-67
2023/02/02 05:03:52;;;;;;;18.92;3.72;;;;;;;8.20;100.00;102195.47;10404944;28;20094;-66
2023/02/02 05:08:53;;;;;;;15.18;5.38;;;;;;;8.15;100.00;102207.56;10420161;28;20120;-66
2023/02/02 05:13:54;;;;;;;17.80;4.70;;;;;;;8.14;100.00;102197.78;10453282;28;20037;-66
2023/02/02 05:18:55;;;;;;;16.58;5.50;;;;;;;8.10;100.00;102201.81;10435852;28;20079;-66
2023/02/02 05:23:56;;;;;;;12.00;3.97;;;;;;;8.06;100.00;102207.63;10452496;28;20046;-66
2023/02/02 05:28:56;;;;;;;13.07;5.03;;;;;;;8.01;100.00;102208.09;10452527;28;20106;-67
2023/02/02 05:33:57;;;;;;;13.02;3.50;;;;;;;8.01;100.00;102202.69;10435317;28;20474;-66
2023/02/02 05:38:59;;;;;;;21.90;5.65;;;;;;;8.02;100.00;102206.22;10418314;28;20377;-68
2023/02/02 05:43:59;;;;;;;32.00;5.65;;;;;;;8.05;100.00;102214.88;10420622;28;20049;-67
2023/02/02 05:49:03;;;;;;;23.17;4.30;;;;;;;7.98;100.00;102219.16;10401823;28;20033;-66
2023/02/02 05:54:04;;;;;;;13.70;4.55;;;;;;;7.97;100.00;102224.69;10418294;28;20037;-67
2023/02/02 05:59:06;;;;;;;14.50;5.45;;;;;;;7.98;100.00;102221.03;10419172;28;20033;-68
2023/02/02 06:04:06;;;;;;;21.33;4.88;;;;;;;8.00;100.00;102227.09;10418007;28;20045;-66
2023/02/02 06:09:07;;;;;;;12.35;4.35;;;;;;;7.98;100.00;102226.41;10418469;28;20038;-66
2023/02/02 06:14:07;;;;;;;20.73;4.88;;;;;;;8.02;100.00;102225.97;10417155;28;20129;-67
2023/02/02 06:19:07;;;;;;;9.55;4.18;;;;;;;8.07;100.00;102231.78;10418259;28;20087;-66
2023/02/02 06:24:08;;;;;;;18.70;4.30;;;;;;;8.07;100.00;102242.56;10417739;28;20037;-66
2023/02/02 06:29:12;;;;;;;18.65;4.25;;;;;;;8.11;100.00;102253.91;10400039;28;20397;-66
2023/02/02 06:34:13;;;;;;;15.10;5.15;;;;;;;8.07;100.00;102277.63;10433333;28;20056;-66
2023/02/02 06:39:13;;;;;;;12.48;4.53;;;;;;;8.07;100.00;102277.63;10432236;28;20030;-66
2023/02/02 06:44:14;;;;;;;23.15;4.75;;;;;;;8.12;100.00;102256.44;10416902;28;20041;-67
2023/02/02 06:49:14;;;;;;;13.90;5.05;;;;;;;8.14;100.00;102259.00;10449122;28;20461;-66
2023/02/02 06:54:15;;;;;;;18.08;4.22;;;;;;;8.15;100.00;102258.00;10449585;28;20069;-67
2023/02/02 06:59:15;;;;;;;10.90;4.60;;;;;;;8.05;100.00;102249.94;10417883;28;20449;-67
2023/02/02 07:04:17;;;;;;;15.10;5.90;;;;;;;7.99;100.00;102264.03;10448276;28;20500;-66
2023/02/02 07:09:17;;;;;;;22.35;6.70;;;;;;;7.96;100.00;102276.97;10416048;28;20048;-66
2023/02/02 07:14:17;;;;;;;28.55;5.40;;;;;;;7.87;100.00;102281.38;10416528;28;20116;-66
2023/02/02 07:19:18;;;;;;;11.50;4.93;;;;;;;7.78;100.00;102283.09;10415788;28;20046;-66
2023/02/02 07:24:18;;;;;;;15.10;5.13;;;;;;;7.73;100.00;102287.25;10415620;28;20037;-67
2023/02/02 07:29:19;;;;;;;20.52;6.00;;;;;;;7.68;100.00;102295.75;10414248;28;20048;-66
2023/02/02 07:34:19;;;;;;;23.92;6.18;;;;;;;7.75;100.00;102301.41;10448361;28;20473;-66
2023/02/02 07:39:20;;;;;;;21.75;5.60;;;;;;;7.66;100.00;102317.47;10414413;28;20104;-66
2023/02/02 07:44:20;;;;;;;20.20;4.18;;;;;;;7.60;100.00;102326.13;10413796;28;20037;-67
2023/02/02 07:49:20;;;;;;;13.18;5.18;;;;;;;7.69;100.00;102337.91;10413990;28;20410;-67
2023/02/02 07:54:21;;;;;;;16.05;5.53;;;;;;;7.73;100.00;102328.53;10414577;28;20033;-66
2023/02/02 07:59:22;;;;;;;25.55;4.25;;;;;;;7.79;100.00;102332.50;10416547;28;20029;-66
2023/02/02 08:04:22;;;;;;;18.02;3.65;;;;;;;7.81;100.00;102338.59;10423595;28;20052;-66
2023/02/02 08:09:22;;;;;;;10.55;4.60;;;;;;;7.88;100.00;102331.59;10422216;28;20061;-66
2023/02/02 08:14:23;;;;;;;15.05;4.57;;;;;;;7.98;100.00;102332.47;10422420;28;20041;-66
2023/02/02 08:19:23;;;;;;;13.52;4.15;;;;;;;8.04;100.00;102339.97;10422299;28;20041;-66
2023/02/02 08:24:24;;;;;;;18.70;4.35;;;;;;;8.11;100.00;102340.25;10422234;28;20460;-65
2023/02/02 08:29:24;;;;;;;16.90;3.40;;;;;;;8.19;100.00;102342.19;10424106;28;20199;-66
2023/02/02 08:34:25;;;;;;;21.52;5.25;;;;;;;8.30;100.00;102359.06;10421290;28;20073;-66
2023/02/02 08:39:25;;;;;;;21.38;4.90;;;;;;;8.30;100.00;102358.22;10422518;28;20041;-66
2023/02/02 08:44:26;;;;;;;13.85;5.18;;;;;;;8.30;100.00;102355.53;10419779;28;20251;-66
2023/02/02 08:49:26;;;;;;;15.95;4.40;;;;;;;8.42;100.00;102367.84;10420438;28;20033;-66
2023/02/02 08:54:27;;;;;;;21.73;5.30;;;;;;;8.50;100.00;102361.75;10453400;28;20132;-66
2023/02/02 08:59:28;;;;;;;24.90;5.05;;;;;;;8.51;100.00;102382.34;10436405;28;20376;-66
2023/02/02 09:04:28;;;;;;;22.98;5.18;;;;;;;8.52;100.00;102384.91;10422035;28;20064;-66
2023/02/02 09:09:29;;;;;;;26.80;5.10;;;;;;;8.50;100.00;102386.88;10420501;28;20049;-66
2023/02/02 09:14:29;;;;;;;10.02;4.47;;;;;;;8.56;100.00;102389.00;10420312;28;20504;-66
2023/02/02 09:19:30;;;;;;;11.77;5.18;;;;;;;8.72;100.00;102406.44;10419594;28;20033;-67
2023/02/02 09:24:30;;;;;;;17.25;5.25;;;;;;;9.06;100.00;102399.44;10420192;28;20040;-66
2023/02/02 09:29:30;;;;;;;4.50;3.55;;;;;;;9.30;100.00;102401.53;10418502;28;20477;-67
2023/02/02 09:34:31;;;;;;;8.25;4.13;;;;;;;10.03;100.00;102405.97;10419943;28;20357;-66
2023/02/02 09:39:31;;;;;;;9.18;4.35;;;;;;;10.63;100.00;102395.22;10418972;28;20129;-66
2023/02/02 09:44:55;;;;;;;13.85;3.63;;;;;;;10.17;100.00;102399.13;10419048;28;20083;-67
2023/02/02 09:50:08;;;;;;;4.78;3.33;;;;;;;9.91;100.00;102396.38;10420717;28;20046;-67
2023/02/02 09:55:37;;;;;;;9.35;4.07;;;;;;;9.90;100.00;102400.94;10451931;28;20068;-65
2023/02/02 10:00:41;;;;;;;10.63;3.65;;;;;;;9.77;100.00;102408.63;10452159;28;20061;-66
2023/02/02 10:06:00;;;;;;;14.90;3.50;;;;;;;9.66;100.00;102415.09;10400344;28;20040;-66
2023/02/02 10:11:03;;;;;;;19.33;4.35;;;;;;;9.61;100.00;102420.13;10450543;28;20504;-67
2023/02/02 10:16:06;;;;;;;9.50;3.53;;;;;;;9.61;100.00;102412.03;10418413;28;20500;-66
2023/02/02 10:21:15;;;;;;;18.40;4.63;;;;;;;10.97;100.00;102424.16;10417155;28;20030;-66
2023/02/02 10:26:45;;;;;;;13.25;3.97;;;;;;;10.81;100.00;102421.38;10418516;28;20207;-66
2023/02/02 10:31:58;;;;;;;11.57;4.75;;;;;;;10.69;100.00;102428.94;10415255;28;20061;-66
2023/02/02 10:37:30;;;;;;;14.00;4.65;;;;;;;10.37;100.00;102437.69;10418533;28;20033;-66
2023/02/02 10:48:22;;;;;;;24.85;3.63;;;;;;;10.17;100.00;102439.72;10443421;28;20033;-66
2023/02/02 10:53:24;;;;;;;9.47;4.50;;;;;;;10.31;100.00;102454.59;10418240;28;20032;-66
2023/02/02 10:58:29;;;;;;;11.70;3.80;;;;;;;10.24;100.00;102457.03;10416392;28;20052;-66
2023/02/02 11:03:32;;;;;;;15.00;3.35;;;;;;;10.20;100.00;102451.09;10414766;28;20034;-66
2023/02/02 11:08:34;;;;;;;17.38;4.10;;;;;;;10.17;100.00;102448.69;10431266;28;20025;-67
2023/02/02 11:13:38;;;;;;;7.55;3.72;;;;;;;9.99;100.00;102450.59;10415554;28;20091;-65
2023/02/02 11:18:38;;;;;;;21.30;4.43;;;;;;;9.95;100.00;102455.44;10447889;28;20037;-66
2023/02/02 11:23:39;;;;;;;32.00;5.50;;;;;;;9.83;100.00;102451.28;10430832;28;20462;-66
2023/02/02 11:28:39;;;;;;;18.42;3.90;;;;;;;9.76;100.00;102444.78;10430069;28;20097;-66
2023/02/02 11:33:40;;;;;;;11.82;3.67;;;;;;;9.62;100.00;102453.44;10415902;28;20473;-66
2023/02/02 11:38:40;;;;;;;14.00;3.90;;;;;;;9.61;100.00;102449.88;10446495;28;20037;-66
2023/02/02 11:43:49;;;;;;;9.95;4.70;;;;;;;9.50;100.00;102444.69;10430167;28;20036;-67
2023/02/02 11:48:52;;;;;;;18.08;4.30;;;;;;;9.58;100.00;102452.03;10448139;28;20373;-68
2023/02/02 11:54:28;;;;;;;10.40;3.53;;;;;;;9.63;100.00;102447.00;10451755;28;20033;-67
2023/02/02 11:59:32;;;;;;;4.30;2.80;;;;;;;9.60;100.00;102440.03;10398344;28;20036;-66
2023/02/02 12:04:32;;;;;;;11.00;3.60;;;;;;;9.64;100.00;102436.06;10415185;28;20032;-66
2023/02/02 12:09:33;;;;;;;16.65;4.78;;;;;;;9.55;100.00;102448.63;10415807;28;20030;-66
2023/02/02 12:14:42;;;;;;;16.08;4.05;;;;;;;9.31;100.00;102430.28;10415285;28;20389;-66
2023/02/02 12:19:58;;;;;;;2.88;2.53;;;;;;;9.11;100.00;102444.06;10447257;28;20030;-67
2023/02/02 12:25:22;;;;;;;16.27;3.78;;;;;;;8.78;100.00;102441.78;10445717;28;20033;-65
2023/02/02 12:30:43;;;;;;;13.93;4.68;;;;;;;8.43;100.00;102439.78;10447879;28;20491;-66
2023/02/02 12:36:12;;;;;;;4.65;3.63;;;;;;;8.26;100.00;102446.72;10446279;28;20525;-66
2023/02/02 12:41:29;;;;;;;10.73;2.58;;;;;;;8.27;100.00;102447.59;10440987;28;20033;-64
2023/02/02 12:46:52;;;;;;;10.68;4.20;;;;;;;8.22;100.00;102448.00;10417298;28;20086;-65
2023/02/02 12:52:25;;;;;;;10.48;3.50;;;;;;;8.08;100.00;102434.97;10449526;28;20124;-64
2023/02/02 12:57:52;;;;;;;6.05;3.35;;;;;;;8.13;100.00;102429.97;10422033;28;20037;-64
2023/02/02 13:03:14;;;;;;;11.65;3.55;;;;;;;8.13;100.00;102425.41;10452462;28;20029;-64
2023/02/02 13:08:25;;;;;;;8.52;2.97;;;;;;;8.01;100.00;102428.41;10421121;28;20033;-65
2023/02/02 13:13:30;;;;;;;7.40;3.55;;;;;;;8.03;100.00;102427.28;10436415;28;20041;-66
2023/02/02 13:18:52;;;;;;;16.65;4.15;;;;;;;7.97;100.00;102422.47;10435718;28;20437;-66
2023/02/02 13:23:55;;;;;;;5.90;3.28;;;;;;;7.89;100.00;102419.63;10419908;28;20373;-66
2023/02/02 13:29:28;;;;;;;4.95;2.67;;;;;;;7.78;100.00;102427.88;10434742;28;20115;-66
2023/02/02 13:34:37;;;;;;;9.93;2.78;;;;;;;7.78;100.00;102425.16;10433186;28;20037;-67
2023/02/02 13:39:44;;;;;;;5.30;2.75;;;;;;;7.78;100.00;102417.91;10452047;28;20033;-67
2023/02/02 13:44:54;;;;;;;17.48;3.50;;;;;;;7.75;100.00;102423.59;10434766;28;20496;-66
2023/02/02 13:50:00;;;;;;;13.85;5.03;;;;;;;7.82;100.00;102427.44;10434225;28;20060;-67
2023/02/02 13:55:18;;;;;;;13.50;5.18;;;;;;;7.81;100.00;102427.56;10418774;28;20537;-67
2023/02/02 14:00:23;;;;;;;10.00;3.80;;;;;;;7.83;100.00;102426.44;10417444;28;20088;-67
2023/02/02 14:05:32;;;;;;;10.80;4.50;;;;;;;7.87;100.00;102443.19;10450534;28;20033;-66
2023/02/02 14:10:36;;;;;;;22.50;3.75;;;;;;;7.86;100.00;102428.03;10448607;28;20519;-67
2023/02/02 14:15:40;;;;;;;17.50;5.75;;;;;;;7.99;100.00;102441.22;10418480;28;20048;-67
2023/02/02 14:20:45;;;;;;;20.73;5.60;;;;;;;8.11;100.00;102440.94;10433488;28;20026;-66
2023/02/02 14:25:46;;;;;;;12.82;4.57;;;;;;;8.13;100.00;102438.91;10433676;28;20103;-66
2023/02/02 14:30:47;;;;;;;16.65;5.68;;;;;;;8.14;100.00;102443.34;10450709;28;20034;-66
2023/02/02 14:35:47;;;;;;;14.68;6.32;;;;;;;8.18;100.00;102464.63;10433819;28;20049;-66
2023/02/02 14:40:48;;;;;;;18.15;4.90;;;;;;;8.23;100.00;102459.63;10416775;28;20048;-67
2023/02/02 14:46:11;;;;;;;17.00;4.20;;;;;;;8.16;100.00;102460.22;10416671;28;20040;-66
2023/02/02 14:51:21;;;;;;;20.42;5.25;;;;;;;8.23;100.00;102465.91;10417279;28;20041;-66
2023/02/02 14:56:37;;;;;;;16.25;5.00;;;;;;;8.25;100.00;102463.91;10432095;28;20091;-66
2023/02/02 15:01:52;;;;;;;18.23;4.68;;;;;;;8.20;100.00;102455.41;10464374;28;20127;-66
2023/02/02 15:06:53;;;;;;;13.80;5.35;;;;;;;8.25;100.00;102461.22;10423241;28;20033;-66
2023/02/02 15:12:02;;;;;;;15.77;4.40;;;;;;;8.28;100.00;102465.47;10417767;28;20033;-66
2023/02/02 15:17:28;;;;;;;22.63;5.20;;;;;;;8.34;100.00;102463.03;10417398;28;20041;-65
2023/02/02 15:22:37;;;;;;;13.45;4.68;;;;;;;8.32;100.00;102447.97;10416670;28;20048;-67
2023/02/02 15:27:38;;;;;;;11.88;4.57;;;;;;;8.32;100.00;102456.09;10416737;28;20053;-66
2023/02/02 15:32:39;;;;;;;16.80;4.43;;;;;;;8.26;100.00;102459.34;10414096;28;20037;-66
2023/02/02 15:37:40;;;;;;;10.65;4.53;;;;;;;8.20;100.00;102465.31;10447854;28;20493;-66
2023/02/02 15:42:51;;;;;;;17.60;5.75;;;;;;;8.14;100.00;102467.63;10430955;28;20049;-65
2023/02/02 15:47:52;;;;;;;13.55;4.43;;;;;;;8.10;100.00;102465.34;10429530;28;20116;-66
2023/02/02 15:52:53;;;;;;;15.40;4.95;;;;;;;8.13;100.00;102482.09;10415496;28;20124;-66
2023/02/02 15:57:54;;;;;;;20.23;4.85;;;;;;;8.21;100.00;102480.53;10413997;28;20159;-66
2023/02/02 16:03:10;;;;;;;13.18;4.78;;;;;;;8.25;100.00;102473.84;10430927;28;20481;-66
2023/02/02 16:08:14;;;;;;;9.60;4.50;;;;;;;8.23;100.00;102483.94;10416223;28;20029;-66
2023/02/02 16:13:25;;;;;;;10.45;4.68;;;;;;;8.29;100.00;102491.44;10430441;28;20022;-66
2023/02/02 16:18:25;;;;;;;12.73;4.47;;;;;;;8.31;100.00;102494.88;10413986;28;20036;-66
2023/02/02 16:23:32;;;;;;;13.10;5.40;;;;;;;8.31;100.00;102495.72;10420277;28;20026;-68
2023/02/02 16:28:33;;;;;;;15.68;4.53;;;;;;;8.37;100.00;102494.31;10421741;28;20505;-67
2023/02/02 16:33:43;;;;;;;12.98;4.30;;;;;;;8.39;100.00;102497.72;10455321;28;20030;-66
2023/02/02 16:38:43;;;;;;;16.67;5.30;;;;;;;8.37;100.00;102505.09;10454611;28;20060;-67
2023/02/02 16:43:44;;;;;;;14.10;5.45;;;;;;;8.35;100.00;102509.78;10420452;28;20068;-66
2023/02/02 16:48:45;;;;;;;14.00;3.00;;;;;;;8.35;100.00;102509.78;10422488;28;20040;-67
2023/02/02 16:53:47;;;;;;;17.13;5.28;;;;;;;8.41;100.00;102506.53;10420776;28;20026;-66
2023/02/02 16:58:47;;;;;;;11.68;4.22;;;;;;;8.42;100.00;102507.38;10453004;28;20063;-66
2023/02/02 17:03:50;;;;;;;9.15;4.18;;;;;;;8.42;100.00;102510.94;10436832;28;20045;-65
2023/02/02 17:08:50;;;;;;;17.52;4.65;;;;;;;8.46;100.00;102512.38;10421048;28;20457;-67
2023/02/02 17:13:51;;;;;;;11.57;4.75;;;;;;;8.52;100.00;102509.09;10453900;28;20117;-66
2023/02/02 17:18:52;;;;;;;13.73;4.85;;;;;;;8.55;100.00;102508.81;10403184;28;20036;-67
2023/02/02 17:23:53;;;;;;;8.68;4.18;;;;;;;8.56;100.00;102520.47;10420316;28;20045;-67
2023/02/02 17:28:54;;;;;;;7.97;3.17;;;;;;;8.58;100.00;102515.75;10419404;28;20393;-66
2023/02/02 17:33:55;;;;;;;4.65;3.70;;;;;;;8.53;100.00;102523.44;10435503;28;20060;-67
2023/02/02 17:38:55;;;;;;;8.63;3.67;;;;;;;8.45;100.00;102534.94;10419001;28;20099;-66
2023/02/02 17:43:56;;;;;;;11.80;4.07;;;;;;;8.37;100.00;102529.41;10421141;28;20034;-67
2023/02/02 17:48:56;;;;;;;11.23;4.63;;;;;;;8.35;100.00;102529.53;10420914;28;20041;-66
2023/02/02 17:53:59;;;;;;;9.32;4.57;;;;;;;8.32;100.00;102532.50;10419243;28;20152;-67
2023/02/02 17:58:59;;;;;;;12.77;3.60;;;;;;;8.32;100.00;102528.97;10419331;28;20041;-67
2023/02/02 18:03:59;;;;;;;7.95;4.47;;;;;;;8.35;100.00;102526.81;10419939;28;20044;-66
2023/02/02 18:09:00;;;;;;;8.05;4.68;;;;;;;8.34;100.00;102524.28;10418012;28;20432;-66
2023/02/02 18:14:00;;;;;;;15.70;4.47;;;;;;;8.31;100.00;102528.09;10417497;28;20037;-67
2023/02/02 18:19:01;;;;;;;9.15;3.03;;;;;;;8.32;100.00;102523.56;10418401;28;20037;-65
2023/02/02 18:24:02;;;;;;;14.40;4.82;;;;;;;8.34;100.00;102511.63;10418403;28;20121;-66
2023/02/02 18:29:02;;;;;;;5.70;4.57;;;;;;;8.38;100.00;102512.22;10419457;28;20061;-66
2023/02/02 18:34:03;;;;;;;5.90;4.38;;;;;;;8.41;100.00;102511.94;10419402;28;20037;-67
2023/02/02 18:39:03;;;;;;;11.80;3.92;;;;;;;8.43;100.00;102509.13;10422610;28;20480;-67
2023/02/02 18:44:04;;;;;;;8.65;4.72;;;;;;;8.46;100.00;102509.66;10433461;28;20041;-67
2023/02/02 18:49:04;;;;;;;12.73;3.92;;;;;;;8.53;100.00;102510.78;10471709;28;20038;-67
2023/02/02 18:54:04;;;;;;;4.80;4.15;;;;;;;8.60;100.00;102506.50;10435224;28;20032;-68
2023/02/02 18:59:05;;;;;;;13.65;4.28;;;;;;;8.69;100.00;102507.50;10472404;28;20029;-66
2023/02/02 19:04:06;;;;;;;18.23;4.07;;;;;;;8.74;100.00;102502.50;10453038;28;20041;-67
2023/02/02 19:09:06;;;;;;;4.13;3.05;;;;;;;8.80;100.00;102488.41;10442810;28;20029;-67
2023/02/02 19:14:17;;;;;;;17.15;5.28;;;;;;;8.81;100.00;102498.22;10440585;28;20053;-67
2023/02/02 19:19:32;;;;;;;2.88;2.35;;;;;;;8.75;100.00;102492.56;10424165;28;20374;-66
2023/02/02 19:24:36;;;;;;;2.55;2.35;;;;;;;8.83;100.00;102508.88;10434786;28;20037;-67
2023/02/02 19:29:36;;;;;;;9.40;5.13;;;;;;;8.77;100.00;102520.25;10461061;28;20046;-68
2023/02/02 19:34:37;;;;;;;10.35;4.47;;;;;;;8.76;100.00;102518.56;10450456;28;20045;-68
2023/02/02 19:39:37;;;;;;;8.50;4.00;;;;;;;8.73;100.00;102516.16;10426166;28;20053;-67
2023/02/02 19:44:39;;;;;;;13.32;3.35;;;;;;;8.71;100.00;102523.53;10417298;28;20041;-68
2023/02/02 19:49:40;;;;;;;11.55;4.22;;;;;;;8.65;100.00;102516.00;10413991;28;20392;-67
2023/02/02 19:54:41;;;;;;;13.88;3.75;;;;;;;8.66;100.00;102525.84;10412478;28;20041;-67
2023/02/02 19:59:42;;;;;;;8.32;4.40;;;;;;;8.68;100.00;102515.72;10430566;28;20025;-66
2023/02/02 20:04:42;;;;;;;16.55;4.20;;;;;;;8.68;100.00;102530.09;10414855;28;20128;-67
2023/02/02 20:09:42;;;;;;;19.25;4.35;;;;;;;8.67;100.00;102541.88;10414576;28;20033;-66
2023/02/02 20:14:43;;;;;;;12.70;4.60;;;;;;;8.66;100.00;102542.03;10413062;28;20533;-68
2023/02/02 20:19:43;;;;;;;14.45;5.10;;;;;;;8.67;100.00;102557.25;10430168;28;20034;-67
2023/02/02 20:24:47;;;;;;;6.63;4.78;;;;;;;8.66;100.00;102544.75;10446718;28;20117;-67
2023/02/02 20:29:48;;;;;;;6.60;2.95;;;;;;;8.67;100.00;102538.34;10413805;28;20494;-66
2023/02/02 20:34:49;;;;;;;16.98;5.10;;;;;;;8.68;100.00;102569.72;10414733;28;20481;-67
2023/02/02 20:39:57;;;;;;;7.55;3.60;;;;;;;8.66;100.00;102561.78;10434326;28;20037;-67
2023/02/02 20:44:57;;;;;;;15.77;3.85;;;;;;;8.70;100.00;102560.50;10414306;28;20036;-66
2023/02/02 20:50:00;;;;;;;10.82;4.80;;;;;;;8.76;100.00;102559.91;10414090;28;20038;-67
2023/02/02 20:55:00;;;;;;;10.90;4.15;;;;;;;8.78;100.00;102557.09;10413815;28;20091;-66
2023/02/02 21:00:00;;;;;;;9.13;4.75;;;;;;;8.83;100.00;102571.00;10413176;28;20440;-66
2023/02/02 21:05:01;;;;;;;10.45;5.03;;;;;;;8.88;100.00;102563.31;10412448;28;20038;-66
2023/02/02 21:10:01;;;;;;;18.23;4.53;;;;;;;8.86;100.00;102549.09;10419834;28;20037;-67
2023/02/02 21:15:02;;;;;;;8.13;4.38;;;;;;;8.94;100.00;102556.50;10452974;28;20094;-67
2023/02/02 21:20:03;;;;;;;12.88;3.83;;;;;;;8.96;100.00;102554.47;10421302;28;20041;-67
2023/02/02 21:25:04;;;;;;;10.15;3.10;;;;;;;8.93;100.00;102541.25;10421022;28;20061;-67
2023/02/02 21:30:05;;;;;;;13.63;4.15;;;;;;;8.93;100.00;102542.09;10419497;28;20084;-66
2023/02/02 21:35:05;;;;;;;17.55;4.22;;;;;;;8.93;100.00;102566.41;10420327;28;20029;-69
2023/02/02 21:40:11;;;;;;;9.93;4.32;;;;;;;8.89;100.00;102572.28;10420074;28;20040;-67
2023/02/02 21:45:27;;;;;;;5.57;2.93;;;;;;;8.88;100.00;102571.44;10452921;28;20037;-67
2023/02/02 21:50:28;;;;;;;16.65;4.63;;;;;;;8.82;100.00;102548.53;10421601;28;20033;-67
2023/02/02 21:55:34;;;;;;;14.73;5.32;;;;;;;8.81;100.00;102560.34;10420288;28;20097;-67
2023/02/02 22:00:34;;;;;;;9.10;4.40;;;;;;;8.76;100.00;102537.47;10453510;28;20431;-67
2023/02/02 22:05:35;;;;;;;14.32;4.65;;;;;;;8.78;100.00;102549.00;10420239;28;20041;-67
2023/02/02 22:10:39;;;;;;;19.50;5.43;;;;;;;8.78;100.00;102535.47;10418492;28;20090;-67
2023/02/02 22:15:39;;;;;;;20.02;4.38;;;;;;;8.78;100.00;102525.53;10434792;28;20087;-67
2023/02/02 22:20:43;;;;;;;12.40;3.55;;;;;;;8.80;100.00;102507.31;10433679;28;20155;-67
2023/02/02 22:25:44;;;;;;;12.75;4.28;;;;;;;8.81;100.00;102513.59;10449139;28;20462;-67
2023/02/02 22:30:44;;;;;;;13.35;3.70;;;;;;;8.79;100.00;102502.91;10451325;28;20112;-67
2023/02/02 22:35:45;;;;;;;14.88;3.03;;;;;;;8.80;100.00;102506.47;10400362;28;20041;-67
2023/02/02 22:40:46;;;;;;;16.38;4.00;;;;;;;8.77;100.00;102506.75;10417806;28;20043;-66
2023/02/02 22:45:46;;;;;;;14.73;4.05;;;;;;;8.79;100.00;102496.66;10417008;28;20088;-67
2023/02/02 22:50:47;;;;;;;12.32;3.38;;;;;;;8.78;100.00;102492.25;10417574;28;20037;-67
2023/02/02 22:55:47;;;;;;;15.90;4.05;;;;;;;8.80;100.00;102468.63;10417212;28;20037;-66
2023/02/02 23:00:48;;;;;;;10.23;4.03;;;;;;;8.68;100.00;102432.00;10416814;28;20033;-66
2023/02/02 23:05:48;;;;;;;16.17;4.07;;;;;;;8.51;100.00;102441.72;10416838;28;20049;-66
2023/02/02 23:10:48;;;;;;;16.83;5.22;;;;;;;8.43;100.00;102442.47;10417376;28;20025;-67
2023/02/02 23:15:49;;;;;;;18.77;3.65;;;;;;;8.38;100.00;102450.13;10416855;28;20515;-67